»·PEaware :: N738BU KBUR-KTOA

N738BU :: KBUR-KTOA

FLIGHT INFORMATION

Flight Status: Arrived
Operator: Privately registered:
United States
More flights under this callsign
Pilot: Ian N. (16575)
Aircraft: CESSNA 172 SKYHAWK
(C172)
More flights by this aircraft type
Origin: KBUR Bob Hope-Burbank
United States
Destination: KTOA Zamperini
United States
More flights between these airports :: More routes between these airports
Route: +ELMOO8 ELMOO V186 ADAMM V394 SLI
File this flight plan on PilotEdge
Remarks:
Altitude:
(Current/Filed)
5,000ft
Speed:
(Current/Filed)
118kts
Departed: 16-Nov-17 04:33 PM
Arrived: 16-Nov-17 05:15 PM
Distance/Time
Traveled:
24nm/0:42
Distance/Time
To Go:
Arrived

Flight Plot

Page will automatically refresh every two minutes.

Flight plan parsing failed; only flown route is shown


Map Options




Map Legend


Flown Route
Filed Route
Departure Airport
Arrival Airport
Navaid (VOR, NDB)
Fix

Horizontal Profiles

Position Reports

Time Latitude Longitude Heading Altitude Ground
Speed
16-Nov-17 16:21 34.210739 -118.357948 257 738ft 0kts
16-Nov-17 16:22 34.210739 -118.357948 257 738ft 0kts
16-Nov-17 16:23 34.210739 -118.357948 257 738ft 0kts
16-Nov-17 16:24 34.210739 -118.357948 257 738ft 0kts
16-Nov-17 16:25 34.210739 -118.357948 257 738ft 0kts
16-Nov-17 16:26 34.210739 -118.357948 257 738ft 0kts
16-Nov-17 16:27 34.210739 -118.357948 257 738ft 0kts
16-Nov-17 16:28 34.210739 -118.357948 257 738ft 0kts
16-Nov-17 16:29 34.210739 -118.357948 257 738ft 0kts
16-Nov-17 16:30 34.210739 -118.357948 257 738ft 0kts
16-Nov-17 16:31 34.210739 -118.357948 257 738ft 0kts
16-Nov-17 16:32 34.210739 -118.357948 257 738ft 0kts
16-Nov-17 16:33 34.210739 -118.357948 257 738ft 0kts
16-Nov-17 16:34 34.210739 -118.357948 257 738ft 0kts
16-Nov-17 16:35 34.210739 -118.357948 257 738ft 0kts
16-Nov-17 16:36 34.210781 -118.358120 314 738ft 1kts
16-Nov-17 16:37 34.211708 -118.359089 309 738ft 6kts
16-Nov-17 16:38 34.201710 -118.357923 178 1072ft 74kts
16-Nov-17 16:39 34.185579 -118.343924 125 2069ft 79kts
16-Nov-17 16:40 34.173598 -118.319675 125 2907ft 90kts
16-Nov-17 16:41 34.160965 -118.293036 125 3699ft 93kts
16-Nov-17 16:42 34.149241 -118.264395 120 4486ft 97kts
16-Nov-17 16:43 34.139411 -118.232992 116 5002ft 119kts
16-Nov-17 16:44 34.128704 -118.194360 114 5000ft 120kts
16-Nov-17 16:45 34.116903 -118.157373 124 5002ft 117kts
16-Nov-17 16:46 34.102262 -118.122125 122 5004ft 118kts
16-Nov-17 16:47 34.097597 -118.081884 111 5005ft 121kts
16-Nov-17 16:48 34.086780 -118.043298 115 5010ft 122kts
16-Nov-17 16:49 34.074948 -118.004607 115 5016ft 124kts
16-Nov-17 16:50 34.062739 -117.964933 113 5019ft 127kts
16-Nov-17 16:51 34.050298 -117.924568 112 5021ft 129kts
16-Nov-17 16:52 34.037663 -117.883627 110 5022ft 130kts
16-Nov-17 16:53 34.024966 -117.842532 109 5022ft 131kts
16-Nov-17 16:54 33.998064 -117.826165 207 4693ft 132kts
16-Nov-17 16:55 33.963524 -117.843228 205 4204ft 136kts
16-Nov-17 16:56 33.929368 -117.859752 204 3985ft 126kts
16-Nov-17 16:57 33.898432 -117.874308 192 3980ft 124kts
16-Nov-17 16:58 33.865494 -117.869502 173 4003ft 123kts
16-Nov-17 16:59 33.832126 -117.862851 173 4007ft 122kts
16-Nov-17 17:00 33.799246 -117.855719 173 4011ft 120kts
16-Nov-17 17:01 33.767160 -117.852069 193 4015ft 114kts
16-Nov-17 17:02 33.736358 -117.858487 193 4016ft 112kts
16-Nov-17 17:03 33.705680 -117.864960 193 4016ft 112kts
16-Nov-17 17:04 33.675127 -117.871452 193 4015ft 111kts
16-Nov-17 17:05 33.644692 -117.878314 205 4012ft 110kts
16-Nov-17 17:06 33.643842 -117.911853 282 3841ft 121kts
16-Nov-17 17:07 33.653386 -117.952053 282 3344ft 127kts
16-Nov-17 17:08 33.663054 -117.993181 282 2847ft 129kts
16-Nov-17 17:09 33.672030 -118.035058 281 2350ft 130kts
16-Nov-17 17:10 33.680592 -118.077311 281 1995ft 123kts
16-Nov-17 17:11 33.688416 -118.116182 280 1991ft 117kts
16-Nov-17 17:12 33.696008 -118.153953 280 1992ft 115kts
16-Nov-17 17:13 33.704955 -118.190186 305 1992ft 115kts
16-Nov-17 17:14 33.724801 -118.219825 305 1993ft 113kts
16-Nov-17 17:15 33.744098 -118.248944 305 1992ft 110kts
16-Nov-17 17:16 33.763312 -118.277934 306 1666ft 112kts
16-Nov-17 17:17 33.779528 -118.302417 306 874ft 68kts
16-Nov-17 17:18 33.790860 -118.319611 305 504ft 52kts
16-Nov-17 17:19 33.800282 -118.333908 304 137ft 55kts
16-Nov-17 17:20 33.805826 -118.343606 288 101ft 28kts

Navigation Log

Ident Type
Flight plan parsing failed, navigation log unavailable